TimeMDT,TemperatureF,Dew PointF,Humidity,Sea Level PressureIn,VisibilityMPH,Wind Direction,Wind SpeedMPH,Gust SpeedMPH,PrecipitationIn,Events,Conditions,WindDirDegrees,DateUTC
12:51 AM,46.9,37.9,71,29.94,-9999.0,Calm,Calm,-,N/A,,Unknown,0,2013-08-27 06:51:00
1:51 AM,46.0,37.9,73,29.94,-9999.0,Calm,Calm,-,N/A,,Unknown,0,2013-08-27 07:51:00
2:51 AM,43.0,37.0,80,29.94,-9999.0,Calm,Calm,-,N/A,,Unknown,0,2013-08-27 08:51:00
3:51 AM,41.0,37.0,86,29.95,-9999.0,South,3.5,-,N/A,,Unknown,180,2013-08-27 09:51:00
4:51 AM,39.9,37.0,89,29.98,-9999.0,Calm,Calm,-,N/A,,Unknown,0,2013-08-27 10:51:00
5:51 AM,39.0,36.0,89,29.99,-9999.0,South,3.5,-,N/A,,Unknown,190,2013-08-27 11:51:00
6:51 AM,37.0,35.1,93,30.00,-9999.0,Calm,Calm,-,N/A,,Unknown,0,2013-08-27 12:51:00
7:51 AM,39.0,37.0,93,30.02,-9999.0,Calm,Calm,-,N/A,,Unknown,0,2013-08-27 13:51:00
8:51 AM,48.0,39.0,71,30.02,-9999.0,Calm,Calm,-,N/A,,Unknown,0,2013-08-27 14:51:00
9:51 AM,54.0,39.0,57,29.99,-9999.0,North,3.5,-,N/A,,Unknown,10,2013-08-27 15:51:00
10:51 AM,61.0,43.0,52,29.95,-9999.0,NNW,3.5,-,N/A,,Unknown,340,2013-08-27 16:51:00
11:51 AM,68.0,44.1,42,29.91,-9999.0,North,4.6,-,N/A,,Unknown,350,2013-08-27 17:51:00
12:51 PM,75.9,32.0,20,29.87,-9999.0,Variable,4.6,-,N/A,,Unknown,0,2013-08-27 18:51:00
1:51 PM,77.0,30.9,19,29.86,-9999.0,SSE,8.1,-,N/A,,Unknown,150,2013-08-27 19:51:00
2:51 PM,77.0,36.0,23,29.87,-9999.0,Variable,6.9,16.1,N/A,,Unknown,0,2013-08-27 20:51:00
3:51 PM,80.1,37.0,21,29.84,-9999.0,SE,10.4,24.2,N/A,,Unknown,130,2013-08-27 21:51:00
4:51 PM,80.1,33.1,18,29.83,-9999.0,SSW,9.2,18.4,N/A,,Unknown,210,2013-08-27 22:51:00
5:51 PM,79.0,34.0,20,29.83,-9999.0,South,8.1,16.1,N/A,,Unknown,190,2013-08-27 23:51:00
6:51 PM,79.0,30.9,17,29.83,-9999.0,SSE,8.1,17.3,N/A,,Unknown,160,2013-08-28 00:51:00
7:51 PM,73.9,35.1,24,29.85,-9999.0,South,8.1,-,N/A,,Unknown,170,2013-08-28 01:51:00
8:51 PM,64.0,37.0,37,29.86,-9999.0,SSE,4.6,-,N/A,,Unknown,150,2013-08-28 02:51:00
9:51 PM,59.0,37.0,44,29.87,-9999.0,South,5.8,-,N/A,,Unknown,170,2013-08-28 03:51:00
10:51 PM,57.9,37.0,46,29.85,-9999.0,SE,4.6,-,N/A,,Unknown,130,2013-08-28 04:51:00
11:51 PM,57.0,37.9,49,29.83,-9999.0,SE,6.9,-,N/A,,Unknown,130,2013-08-28 05:51:00